Time;durP1;ratioP1;P1;durP2;ratioP2;P2;SDS_P1;SDS_P2;PMS_P1;PMS_P2;Temp;Humidity;BMP_temperature;BMP_pressure;BME280_temperature;BME280_humidity;BME280_pressure;Samples;Min_cycle;Max_cycle;Signal;HPM_P1;HPM_P2
2023/03/23 00:02:04;;;;;;;;;0.50;0.00;;;;;;;;6336999;22;45348;-80
2023/03/23 00:04:29;;;;;;;;;1.75;0.00;;;;;;;;6336395;22;45275;-80
2023/03/23 00:06:55;;;;;;;;;0.00;0.00;;;;;;;;6336437;22;45445;-80
2023/03/23 00:09:23;;;;;;;;;0.67;0.67;;;;;;;;6336677;22;45263;-79
2023/03/23 00:11:49;;;;;;;;;0.50;0.00;;;;;;;;6336279;22;45108;-80
2023/03/23 00:14:14;;;;;;;;;2.00;0.00;;;;;;;;6336332;22;45405;-80
2023/03/23 00:16:40;;;;;;;;;1.67;0.00;;;;;;;;6336591;22;45287;-79
2023/03/23 00:19:15;;;;;;;;;0.00;0.00;;;;;;;;6336329;22;45555;-79
2023/03/23 00:21:41;;;;;;;;;0.75;0.00;;;;;;;;6336488;22;45600;-81
2023/03/23 00:24:16;;;;;;;;;0.00;0.00;;;;;;;;6336372;22;45423;-79
2023/03/23 00:26:43;;;;;;;;;0.00;0.00;;;;;;;;6336581;22;45341;-81
2023/03/23 00:29:29;;;;;;;;;1.00;0.00;;;;;;;;6335827;22;45291;-80
2023/03/23 00:31:56;;;;;;;;;0.00;0.00;;;;;;;;6335470;22;45263;-80
2023/03/23 00:34:24;;;;;;;;;2.25;0.75;;;;;;;;6336297;22;45436;-79
2023/03/23 00:36:51;;;;;;;;;0.00;0.00;;;;;;;;6336047;22;45378;-80
2023/03/23 00:39:17;;;;;;;;;0.00;0.00;;;;;;;;6336896;22;45600;-78
2023/03/23 00:41:43;;;;;;;;;1.75;0.00;;;;;;;;6336301;22;45467;-79
2023/03/23 00:44:09;;;;;;;;;0.00;0.00;;;;;;;;6336124;22;45347;-79
2023/03/23 00:46:34;;;;;;;;;0.00;0.00;;;;;;;;6335931;22;45518;-79
2023/03/23 00:48:59;;;;;;;;;0.75;0.00;;;;;;;;6336507;22;45310;-79
2023/03/23 00:51:25;;;;;;;;;1.00;0.00;;;;;;;;6336729;22;45352;-80
2023/03/23 00:53:51;;;;;;;;;0.00;0.00;;;;;;;;6334362;22;45386;-80
2023/03/23 00:56:16;;;;;;;;;1.00;0.00;;;;;;;;6335931;22;45205;-80
2023/03/23 00:58:41;;;;;;;;;0.25;0.00;;;;;;;;6334468;22;45270;-79
2023/03/23 01:01:07;;;;;;;;;0.50;0.50;;;;;;;;6336155;22;45261;-80
2023/03/23 01:03:33;;;;;;;;;0.00;0.00;;;;;;;;6336738;22;45241;-80
2023/03/23 01:06:04;;;;;;;;;0.75;0.00;;;;;;;;6335851;22;45304;-79
2023/03/23 01:08:31;;;;;;;;;0.25;0.00;;;;;;;;6335929;22;45618;-80
2023/03/23 01:11:03;;;;;;;;;0.00;0.00;;;;;;;;6335208;22;45376;-80
2023/03/23 01:13:28;;;;;;;;;0.00;0.00;;;;;;;;6336562;22;45318;-81
2023/03/23 01:15:53;;;;;;;;;0.00;0.00;;;;;;;;6336365;22;45294;-80
2023/03/23 01:18:19;;;;;;;;;0.67;0.67;;;;;;;;6335771;22;45343;-79
2023/03/23 01:20:44;;;;;;;;;0.25;0.25;;;;;;;;6336216;22;45327;-80
2023/03/23 01:23:10;;;;;;;;;0.67;0.67;;;;;;;;6335147;22;45242;-80
2023/03/23 01:34:43;;;;;;;;;0.25;0.25;;;;;;;;6336195;22;45264;-80
2023/03/23 01:37:09;;;;;;;;;0.00;0.00;;;;;;;;6333852;22;48092;-80
2023/03/23 01:39:36;;;;;;;;;2.67;1.33;;;;;;;;6333462;22;45508;-80
2023/03/23 01:42:01;;;;;;;;;0.00;0.00;;;;;;;;6335843;22;45364;-81
2023/03/23 01:44:26;;;;;;;;;0.00;0.00;;;;;;;;6335679;22;45284;-81
2023/03/23 01:46:51;;;;;;;;;0.00;0.00;;;;;;;;6334007;22;46906;-83
2023/03/23 01:49:18;;;;;;;;;1.00;1.00;;;;;;;;6335684;22;45337;-81
2023/03/23 01:51:46;;;;;;;;;0.75;0.00;;;;;;;;6336181;22;45326;-81
2023/03/23 01:54:14;;;;;;;;;0.25;0.00;;;;;;;;6335548;22;45234;-82
2023/03/23 01:56:44;;;;;;;;;0.00;0.00;;;;;;;;6335602;22;46699;-81
2023/03/23 01:59:10;;;;;;;;;0.50;0.00;;;;;;;;6335720;22;45242;-82
2023/03/23 02:01:38;;;;;;;;;0.25;0.00;;;;;;;;6335935;22;45325;-81
2023/03/23 02:04:04;;;;;;;;;1.50;0.00;;;;;;;;6335717;22;45416;-81
2023/03/23 02:06:29;;;;;;;;;1.00;0.00;;;;;;;;6335256;22;45567;-81
2023/03/23 02:08:55;;;;;;;;;1.00;0.00;;;;;;;;6335562;22;45268;-81
2023/03/23 02:11:21;;;;;;;;;0.50;0.50;;;;;;;;6335699;22;45380;-81
2023/03/23 02:13:47;;;;;;;;;0.00;0.00;;;;;;;;6335577;22;45233;-81
2023/03/23 02:16:48;;;;;;;;;1.00;0.50;;;;;;;;6335530;22;46433;-80
2023/03/23 02:19:13;;;;;;;;;2.00;0.75;;;;;;;;6208939;22;45403;-81
2023/03/23 02:21:53;;;;;;;;;0.00;0.00;;;;;;;;6208743;22;45346;-80
2023/03/23 02:24:22;;;;;;;;;0.00;0.00;;;;;;;;6208519;22;45386;-80
2023/03/23 02:27:01;;;;;;;;;1.00;1.00;;;;;;;;6209039;22;46608;-81
2023/03/23 02:29:40;;;;;;;;;3.75;1.00;;;;;;;;6208862;22;45408;-81
2023/03/23 02:32:05;;;;;;;;;1.00;0.50;;;;;;;;6208722;22;45335;-80
2023/03/23 02:34:31;;;;;;;;;0.50;0.50;;;;;;;;6209255;22;45342;-79
2023/03/23 02:37:04;;;;;;;;;1.00;1.00;;;;;;;;6210262;22;46049;-80
2023/03/23 02:39:32;;;;;;;;;1.50;1.00;;;;;;;;6209351;22;45325;-80
2023/03/23 02:41:57;;;;;;;;;0.00;0.00;;;;;;;;6210616;22;45284;-80
2023/03/23 02:44:25;;;;;;;;;0.00;0.00;;;;;;;;6210454;22;45321;-80
2023/03/23 02:46:51;;;;;;;;;0.00;0.00;;;;;;;;6210237;22;46177;-83
2023/03/23 02:49:17;;;;;;;;;0.00;0.00;;;;;;;;6210210;22;45370;-81
2023/03/23 02:51:46;;;;;;;;;3.00;0.00;;;;;;;;6210259;22;45459;-80
2023/03/23 02:54:11;;;;;;;;;1.00;0.00;;;;;;;;6319891;22;45281;-81
2023/03/23 02:56:38;;;;;;;;;0.00;0.00;;;;;;;;6336779;22;46416;-81
2023/03/23 02:59:03;;;;;;;;;0.25;0.00;;;;;;;;6335000;22;45556;-81
2023/03/23 03:01:28;;;;;;;;;0.00;0.00;;;;;;;;6337178;22;45219;-81
2023/03/23 03:03:57;;;;;;;;;0.00;0.00;;;;;;;;6337424;22;45155;-81
2023/03/23 03:06:41;;;;;;;;;0.00;0.00;;;;;;;;6336853;22;46020;-81
2023/03/23 03:09:14;;;;;;;;;0.25;0.25;;;;;;;;6337012;22;45287;-81
2023/03/23 03:11:45;;;;;;;;;0.25;0.00;;;;;;;;6336679;22;45383;-81
2023/03/23 03:14:17;;;;;;;;;0.25;0.25;;;;;;;;6335155;22;45319;-80
2023/03/23 03:16:45;;;;;;;;;0.00;0.00;;;;;;;;6336380;22;46963;-82
2023/03/23 03:19:28;;;;;;;;;0.00;0.00;;;;;;;;6337148;22;45466;-82
2023/03/23 03:21:57;;;;;;;;;0.50;0.50;;;;;;;;6336238;22;45403;-81
2023/03/23 03:24:23;;;;;;;;;3.50;0.50;;;;;;;;6334962;22;45550;-81
2023/03/23 03:26:51;;;;;;;;;0.50;0.00;;;;;;;;6336720;22;46452;-81
2023/03/23 03:29:18;;;;;;;;;0.00;0.00;;;;;;;;6336964;22;45242;-81
2023/03/23 03:31:47;;;;;;;;;3.25;1.00;;;;;;;;6337014;22;45348;-82
2023/03/23 03:34:17;;;;;;;;;1.75;0.25;;;;;;;;6336523;22;45395;-81
2023/03/23 03:36:43;;;;;;;;;0.75;0.75;;;;;;;;6336356;22;46248;-81
2023/03/23 03:39:09;;;;;;;;;0.25;0.25;;;;;;;;6336900;22;45206;-81
2023/03/23 03:41:35;;;;;;;;;2.25;1.00;;;;;;;;6336993;22;45257;-81
2023/03/23 03:44:01;;;;;;;;;2.00;0.25;;;;;;;;6336412;22;45426;-81
2023/03/23 03:46:26;;;;;;;;;0.00;0.00;;;;;;;;6334090;22;47504;-81
2023/03/23 03:48:52;;;;;;;;;1.00;1.00;;;;;;;;6335900;22;45221;-80
2023/03/23 03:51:17;;;;;;;;;0.00;0.00;;;;;;;;6334252;22;45207;-80
2023/03/23 03:53:42;;;;;;;;;2.00;1.00;;;;;;;;6336271;22;45629;-79
2023/03/23 03:56:07;;;;;;;;;1.00;1.00;;;;;;;;6336264;22;46747;-81
2023/03/23 03:58:35;;;;;;;;;0.00;0.00;;;;;;;;6336329;22;45236;-80
2023/03/23 04:01:02;;;;;;;;;1.75;0.00;;;;;;;;6337002;22;45293;-81
2023/03/23 04:03:27;;;;;;;;;1.00;0.00;;;;;;;;6336264;22;45387;-80
2023/03/23 04:05:54;;;;;;;;;0.00;0.00;;;;;;;;6335746;22;46074;-81
2023/03/23 04:08:21;;;;;;;;;0.00;0.00;;;;;;;;6336279;22;45519;-80
2023/03/23 04:10:47;;;;;;;;;2.00;0.00;;;;;;;;6336432;22;45174;-81
2023/03/23 04:13:12;;;;;;;;;0.00;0.00;;;;;;;;6336477;22;45263;-80
2023/03/23 04:15:38;;;;;;;;;0.00;0.00;;;;;;;;6336614;22;46137;-80
2023/03/23 04:18:05;;;;;;;;;0.50;0.50;;;;;;;;6336531;22;45251;-81
2023/03/23 04:20:30;;;;;;;;;2.00;0.50;;;;;;;;6334538;22;45314;-81
2023/03/23 04:22:56;;;;;;;;;0.75;0.00;;;;;;;;6336379;22;45337;-81
2023/03/23 04:25:21;;;;;;;;;1.00;0.00;;;;;;;;6336816;22;46362;-81
2023/03/23 04:27:52;;;;;;;;;1.00;0.50;;;;;;;;6336642;22;45261;-80
2023/03/23 04:30:18;;;;;;;;;0.00;0.00;;;;;;;;6336930;22;45345;-81
2023/03/23 04:32:43;;;;;;;;;0.75;0.75;;;;;;;;6336713;22;45692;-81
2023/03/23 04:35:10;;;;;;;;;2.00;1.00;;;;;;;;6336119;22;46440;-81
2023/03/23 04:37:36;;;;;;;;;1.00;0.00;;;;;;;;6335975;22;45484;-80
2023/03/23 04:40:06;;;;;;;;;0.25;0.25;;;;;;;;6336796;22;45279;-81
2023/03/23 04:42:31;;;;;;;;;0.50;0.25;;;;;;;;6336158;22;45220;-81
2023/03/23 04:44:57;;;;;;;;;0.00;0.00;;;;;;;;6336510;22;46510;-81
2023/03/23 04:47:23;;;;;;;;;2.00;0.50;;;;;;;;6336600;22;45228;-81
2023/03/23 04:49:48;;;;;;;;;0.00;0.00;;;;;;;;6335929;22;45293;-81
2023/03/23 04:52:13;;;;;;;;;1.00;1.00;;;;;;;;6336637;22;45396;-81
2023/03/23 04:54:39;;;;;;;;;0.00;0.00;;;;;;;;6335812;22;46888;-81
2023/03/23 04:57:04;;;;;;;;;0.00;0.00;;;;;;;;6336019;22;45194;-80
2023/03/23 04:59:30;;;;;;;;;1.00;1.00;;;;;;;;6336061;22;45261;-80
2023/03/23 05:01:55;;;;;;;;;0.75;0.00;;;;;;;;6335345;22;45429;-81
2023/03/23 05:04:22;;;;;;;;;0.00;0.00;;;;;;;;6335904;22;45909;-81
2023/03/23 05:06:48;;;;;;;;;1.00;1.00;;;;;;;;6336686;22;45222;-81
2023/03/23 05:09:13;;;;;;;;;0.00;0.00;;;;;;;;6336410;22;45228;-81
2023/03/23 05:11:38;;;;;;;;;1.00;1.00;;;;;;;;6336102;22;45237;-80
2023/03/23 05:14:04;;;;;;;;;1.33;0.00;;;;;;;;6336004;22;45266;-81
2023/03/23 05:16:30;;;;;;;;;1.00;0.00;;;;;;;;6335839;22;45715;-81
2023/03/23 05:18:57;;;;;;;;;0.00;0.00;;;;;;;;6335652;22;45409;-81
2023/03/23 05:21:22;;;;;;;;;1.00;1.00;;;;;;;;6335900;22;45414;-81
2023/03/23 05:23:54;;;;;;;;;1.33;0.00;;;;;;;;6336342;22;46347;-81
2023/03/23 05:26:19;;;;;;;;;2.50;0.00;;;;;;;;6335766;22;45659;-81
2023/03/23 05:28:45;;;;;;;;;3.00;0.75;;;;;;;;6336391;22;45294;-81
2023/03/23 05:31:10;;;;;;;;;1.75;0.25;;;;;;;;6336022;22;45296;-81
2023/03/23 05:33:36;;;;;;;;;0.00;0.00;;;;;;;;6335144;22;46370;-81
2023/03/23 05:36:02;;;;;;;;;0.00;0.00;;;;;;;;6335964;22;45246;-81
2023/03/23 05:38:27;;;;;;;;;1.50;1.00;;;;;;;;6336465;22;45245;-81
2023/03/23 05:40:53;;;;;;;;;0.00;0.00;;;;;;;;6335885;22;45462;-80
2023/03/23 05:43:18;;;;;;;;;0.00;0.00;;;;;;;;6335749;22;46428;-81
2023/03/23 05:45:43;;;;;;;;;0.00;0.00;;;;;;;;6336124;22;45217;-81
2023/03/23 05:48:08;;;;;;;;;0.00;0.00;;;;;;;;6335826;22;45197;-81
2023/03/23 05:50:34;;;;;;;;;0.00;0.00;;;;;;;;6336037;22;45195;-81
2023/03/23 05:52:59;;;;;;;;;3.00;0.75;;;;;;;;6335628;22;46296;-81
2023/03/23 05:55:24;;;;;;;;;0.00;0.00;;;;;;;;6336321;22;45212;-81
2023/03/23 05:57:50;;;;;;;;;1.75;0.00;;;;;;;;6336153;22;45606;-81
2023/03/23 06:00:19;;;;;;;;;2.00;0.00;;;;;;;;6335795;22;45436;-81
2023/03/23 06:02:45;;;;;;;;;0.00;0.00;;;;;;;;6334882;22;47095;-81
2023/03/23 06:05:10;;;;;;;;;2.00;0.25;;;;;;;;6335654;22;45265;-82
2023/03/23 06:07:37;;;;;;;;;2.00;0.00;;;;;;;;6334178;22;45706;-81
2023/03/23 06:10:03;;;;;;;;;0.00;0.00;;;;;;;;6336523;22;45279;-81
2023/03/23 06:12:28;;;;;;;;;0.00;0.00;;;;;;;;6337291;22;46161;-82
2023/03/23 06:14:53;;;;;;;;;0.67;0.00;;;;;;;;6337423;22;45546;-81
2023/03/23 06:17:18;;;;;;;;;1.00;0.67;;;;;;;;6336537;22;45341;-84
2023/03/23 06:19:48;;;;;;;;;1.00;1.00;;;;;;;;6337551;22;45436;-82
2023/03/23 06:22:14;;;;;;;;;0.00;0.00;;;;;;;;6336857;22;45351;-82
2023/03/23 06:24:39;;;;;;;;;0.00;0.00;;;;;;;;6336748;22;45426;-82
2023/03/23 06:27:04;;;;;;;;;3.00;1.00;;;;;;;;6337103;22;45282;-82
2023/03/23 06:29:29;;;;;;;;;3.00;0.00;;;;;;;;6336744;22;45287;-82
2023/03/23 06:31:59;;;;;;;;;2.00;0.00;;;;;;;;6337001;22;46038;-81
2023/03/23 06:34:25;;;;;;;;;0.00;0.00;;;;;;;;6335178;22;45519;-80
2023/03/23 06:36:50;;;;;;;;;0.75;0.00;;;;;;;;6337422;22;45149;-80
2023/03/23 06:39:16;;;;;;;;;0.25;0.25;;;;;;;;6337548;22;45083;-81
2023/03/23 06:41:41;;;;;;;;;1.00;0.00;;;;;;;;6337205;22;45266;-79
2023/03/23 06:44:08;;;;;;;;;2.50;1.00;;;;;;;;6336395;22;45400;-80
2023/03/23 06:46:33;;;;;;;;;3.00;0.00;;;;;;;;6335350;22;45451;-83
2023/03/23 06:48:59;;;;;;;;;1.25;1.00;;;;;;;;6336436;22;45535;-81
2023/03/23 06:51:24;;;;;;;;;0.00;0.00;;;;;;;;6337071;22;46059;-83
2023/03/23 06:53:49;;;;;;;;;0.00;0.00;;;;;;;;6336810;22;45288;-81
2023/03/23 06:56:15;;;;;;;;;1.75;0.75;;;;;;;;6335045;22;45304;-80
2023/03/23 06:58:45;;;;;;;;;0.00;0.00;;;;;;;;6336924;22;45261;-82
2023/03/23 07:01:10;;;;;;;;;0.00;0.00;;;;;;;;6336554;22;46955;-82
2023/03/23 07:03:36;;;;;;;;;0.33;0.00;;;;;;;;6336591;22;45213;-81
2023/03/23 07:06:03;;;;;;;;;1.00;0.00;;;;;;;;6335255;22;45352;-81
2023/03/23 07:08:28;;;;;;;;;1.00;1.00;;;;;;;;6336788;22;45403;-81
2023/03/23 07:10:54;;;;;;;;;2.00;1.00;;;;;;;;6334846;22;47315;-82
2023/03/23 07:13:20;;;;;;;;;0.00;0.00;;;;;;;;6335998;22;45346;-81
2023/03/23 07:15:46;;;;;;;;;2.00;1.00;;;;;;;;6336108;22;45280;-83
2023/03/23 07:18:11;;;;;;;;;2.00;0.75;;;;;;;;6333547;22;45415;-82
2023/03/23 07:20:37;;;;;;;;;2.67;1.00;;;;;;;;6332801;22;46779;-81
2023/03/23 07:23:04;;;;;;;;;1.00;1.00;;;;;;;;6335122;22;45323;-82
2023/03/23 07:25:30;;;;;;;;;2.50;2.00;;;;;;;;6335960;22;45304;-81
2023/03/23 07:27:56;;;;;;;;;2.00;1.00;;;;;;;;6335795;22;45264;-83
2023/03/23 07:30:21;;;;;;;;;1.00;1.00;;;;;;;;6335369;22;45491;-82
2023/03/23 07:32:46;;;;;;;;;1.25;1.25;;;;;;;;6334085;22;45262;-81
2023/03/23 07:35:12;;;;;;;;;2.00;2.00;;;;;;;;6336265;22;45181;-82
2023/03/23 07:37:37;;;;;;;;;2.75;1.00;;;;;;;;6335574;22;45426;-82
2023/03/23 07:40:14;;;;;;;;;2.00;1.00;;;;;;;;6336041;22;45430;-83
2023/03/23 07:42:40;;;;;;;;;3.00;1.50;;;;;;;;6335543;22;45234;-82
2023/03/23 07:45:06;;;;;;;;;1.00;1.00;;;;;;;;6335585;22;45397;-80
2023/03/23 07:47:31;;;;;;;;;3.00;1.00;;;;;;;;6335741;22;45487;-81
2023/03/23 07:49:57;;;;;;;;;1.67;1.00;;;;;;;;6335243;22;46401;-80
2023/03/23 07:52:23;;;;;;;;;1.00;1.00;;;;;;;;6335417;22;45240;-81
2023/03/23 07:54:48;;;;;;;;;3.75;1.00;;;;;;;;6336096;22;45718;-80
2023/03/23 07:57:14;;;;;;;;;2.00;1.00;;;;;;;;6334708;22;45469;-79
2023/03/23 07:59:39;;;;;;;;;3.00;1.00;;;;;;;;6335472;22;45332;-81
2023/03/23 08:02:04;;;;;;;;;3.00;1.33;;;;;;;;6333515;22;45235;-80
2023/03/23 08:04:29;;;;;;;;;1.00;1.00;;;;;;;;6335117;22;45396;-79
2023/03/23 08:06:56;;;;;;;;;1.00;1.00;;;;;;;;6335519;22;45627;-80
2023/03/23 08:09:21;;;;;;;;;1.00;1.00;;;;;;;;6335039;22;45469;-80
2023/03/23 08:11:48;;;;;;;;;1.00;1.00;;;;;;;;6335142;22;45327;-79
2023/03/23 08:14:13;;;;;;;;;2.00;2.00;;;;;;;;6335318;22;45348;-80
2023/03/23 08:16:38;;;;;;;;;3.00;1.67;;;;;;;;6335213;22;45388;-80
2023/03/23 08:19:05;;;;;;;;;3.00;1.00;;;;;;;;6334946;22;45331;-79
2023/03/23 08:21:30;;;;;;;;;1.00;1.00;;;;;;;;6335489;22;45615;-80
2023/03/23 08:23:55;;;;;;;;;1.00;1.00;;;;;;;;6335000;22;45389;-80
2023/03/23 08:26:22;;;;;;;;;1.00;1.00;;;;;;;;6335006;22;45276;-81
2023/03/23 08:28:47;;;;;;;;;2.00;0.50;;;;;;;;6334596;22;46500;-81
2023/03/23 08:31:13;;;;;;;;;2.67;2.67;;;;;;;;6332136;22;45249;-80
2023/03/23 08:33:38;;;;;;;;;2.50;1.00;;;;;;;;6335440;22;45477;-80
2023/03/23 08:36:04;;;;;;;;;4.00;1.00;;;;;;;;6335795;22;45272;-82
2023/03/23 08:38:29;;;;;;;;;1.00;0.75;;;;;;;;6335557;22;45733;-79
2023/03/23 08:40:58;;;;;;;;;3.75;1.00;;;;;;;;6335146;22;45310;-82
2023/03/23 08:43:24;;;;;;;;;3.00;1.00;;;;;;;;6335812;22;45366;-80
2023/03/23 08:45:49;;;;;;;;;1.00;1.00;;;;;;;;6335271;22;45468;-80
2023/03/23 08:48:15;;;;;;;;;0.75;0.75;;;;;;;;6328422;22;45461;-80
2023/03/23 08:50:40;;;;;;;;;0.00;0.00;;;;;;;;6317289;22;45450;-80
2023/03/23 08:53:07;;;;;;;;;1.00;0.75;;;;;;;;6331377;22;45383;-81
2023/03/23 08:55:32;;;;;;;;;1.50;0.25;;;;;;;;6330538;22;45398;-81
2023/03/23 08:57:57;;;;;;;;;0.50;0.50;;;;;;;;6330584;22;46110;-81
2023/03/23 09:00:26;;;;;;;;;1.00;0.00;;;;;;;;6330772;22;45443;-80
2023/03/23 09:02:52;;;;;;;;;0.25;0.25;;;;;;;;6331479;22;45362;-80
2023/03/23 09:05:18;;;;;;;;;0.25;0.00;;;;;;;;6330646;22;45514;-80
2023/03/23 09:07:45;;;;;;;;;1.50;1.00;;;;;;;;6331815;22;46722;-80
2023/03/23 09:10:11;;;;;;;;;1.00;1.00;;;;;;;;6329961;22;45713;-81
2023/03/23 09:12:37;;;;;;;;;2.00;0.75;;;;;;;;6331211;22;45358;-80
2023/03/23 09:15:08;;;;;;;;;2.00;1.00;;;;;;;;6330249;22;45440;-79
2023/03/23 09:17:47;;;;;;;;;1.25;1.25;;;;;;;;6330804;22;46462;-80
2023/03/23 09:20:13;;;;;;;;;1.75;1.00;;;;;;;;6332671;22;46003;-80
2023/03/23 09:22:39;;;;;;;;;1.75;1.00;;;;;;;;6332467;22;45661;-81
2023/03/23 09:25:05;;;;;;;;;1.75;1.00;;;;;;;;6332669;22;45388;-80
2023/03/23 09:27:30;;;;;;;;;1.00;1.00;;;;;;;;6332983;22;45451;-81
2023/03/23 09:29:56;;;;;;;;;1.33;1.33;;;;;;;;6331203;22;45569;-81
2023/03/23 09:32:22;;;;;;;;;1.00;1.00;;;;;;;;6332156;22;45741;-80
2023/03/23 09:34:47;;;;;;;;;3.00;2.00;;;;;;;;6333392;22;45231;-80
2023/03/23 09:37:14;;;;;;;;;1.00;1.00;;;;;;;;6330721;22;47167;-80
2023/03/23 09:39:39;;;;;;;;;0.00;0.00;;;;;;;;6329419;22;45748;-80
2023/03/23 09:42:15;;;;;;;;;3.33;1.00;;;;;;;;6331886;22;45560;-81
2023/03/23 09:44:59;;;;;;;;;1.00;1.00;;;;;;;;6331821;22;45494;-80
2023/03/23 09:47:33;;;;;;;;;2.00;0.25;;;;;;;;6332810;22;45584;-80
2023/03/23 09:50:19;;;;;;;;;1.00;1.00;;;;;;;;6332530;22;45779;-81
2023/03/23 09:52:52;;;;;;;;;2.25;1.00;;;;;;;;6330478;22;45328;-80
2023/03/23 09:55:19;;;;;;;;;2.75;2.00;;;;;;;;6333496;22;45280;-80
2023/03/23 09:58:03;;;;;;;;;0.00;0.00;;;;;;;;6332603;22;45511;-81
2023/03/23 10:00:34;;;;;;;;;2.00;0.75;;;;;;;;6324572;22;46187;-80
2023/03/23 10:03:14;;;;;;;;;0.75;0.00;;;;;;;;6323821;22;45507;-80
2023/03/23 10:05:45;;;;;;;;;0.00;0.00;;;;;;;;6327463;22;45676;-80
2023/03/23 10:08:13;;;;;;;;;0.25;0.25;;;;;;;;6331074;22;46481;-80
2023/03/23 10:11:00;;;;;;;;;1.50;0.75;;;;;;;;6331955;22;45671;-81
2023/03/23 10:13:25;;;;;;;;;0.25;0.25;;;;;;;;6332437;22;45390;-80
2023/03/23 10:15:51;;;;;;;;;1.00;1.00;;;;;;;;6330854;22;45375;-80
2023/03/23 10:18:39;;;;;;;;;2.00;1.00;;;;;;;;6334057;22;45919;-80
2023/03/23 10:21:06;;;;;;;;;2.75;1.00;;;;;;;;6206862;22;45562;-79
2023/03/23 10:23:50;;;;;;;;;2.25;0.00;;;;;;;;6206561;22;45391;-79
2023/03/23 10:26:28;;;;;;;;;1.75;1.00;;;;;;;;6207576;22;45285;-80
2023/03/23 10:28:58;;;;;;;;;2.50;1.00;;;;;;;;6207496;22;46275;-79
2023/03/23 10:31:27;;;;;;;;;1.00;1.00;;;;;;;;6207006;22;45510;-80
2023/03/23 10:33:56;;;;;;;;;0.50;0.00;;;;;;;;6208006;22;45488;-80
2023/03/23 10:36:21;;;;;;;;;1.00;0.00;;;;;;;;6207371;22;45394;-80
2023/03/23 10:38:56;;;;;;;;;1.50;1.00;;;;;;;;6181988;22;46996;-80
2023/03/23 10:41:22;;;;;;;;;1.00;0.00;;;;;;;;6207389;22;45660;-81
2023/03/23 10:43:52;;;;;;;;;0.75;0.75;;;;;;;;6206426;22;45276;-79
2023/03/23 10:46:36;;;;;;;;;0.75;0.75;;;;;;;;6206474;22;45308;-79
2023/03/23 10:49:02;;;;;;;;;1.00;0.00;;;;;;;;6206482;22;46251;-78
2023/03/23 10:51:34;;;;;;;;;2.75;0.50;;;;;;;;6206492;22;45471;-80
2023/03/23 10:54:01;;;;;;;;;1.00;1.00;;;;;;;;6206928;22;45312;-78
2023/03/23 10:56:36;;;;;;;;;1.25;0.75;;;;;;;;6208286;22;45389;-79
2023/03/23 10:59:11;;;;;;;;;1.75;0.75;;;;;;;;6320597;22;46068;-81
2023/03/23 11:01:36;;;;;;;;;3.50;1.00;;;;;;;;6335000;22;45344;-80
2023/03/23 11:04:02;;;;;;;;;0.00;0.00;;;;;;;;6333835;22;45321;-79
2023/03/23 11:06:28;;;;;;;;;1.25;1.00;;;;;;;;6334666;22;45407;-80
2023/03/23 11:08:53;;;;;;;;;1.00;1.00;;;;;;;;6334689;22;47133;-79
2023/03/23 11:11:23;;;;;;;;;4.00;1.00;;;;;;;;6333749;22;45387;-79
2023/03/23 11:13:51;;;;;;;;;2.00;0.50;;;;;;;;6335369;22;45330;-79
2023/03/23 11:16:27;;;;;;;;;2.00;1.25;;;;;;;;6335434;22;45481;-79
2023/03/23 11:18:52;;;;;;;;;1.00;1.00;;;;;;;;6334096;22;46281;-79
2023/03/23 11:21:19;;;;;;;;;1.50;1.00;;;;;;;;6333788;22;45435;-79
2023/03/23 11:23:48;;;;;;;;;0.00;0.00;;;;;;;;6334446;22;45327;-80
2023/03/23 11:26:17;;;;;;;;;2.00;1.00;;;;;;;;6334915;22;45491;-79
2023/03/23 11:28:52;;;;;;;;;4.00;2.00;;;;;;;;6332843;22;45668;-77
2023/03/23 11:31:21;;;;;;;;;1.00;1.00;;;;;;;;6335007;22;45348;-79
2023/03/23 11:33:58;;;;;;;;;2.00;1.75;;;;;;;;6334753;22;45269;-77
2023/03/23 11:36:31;;;;;;;;;1.75;1.25;;;;;;;;6334803;22;45345;-77
2023/03/23 11:38:57;;;;;;;;;2.25;1.25;;;;;;;;6334683;22;47085;-76
2023/03/23 11:41:23;;;;;;;;;2.00;0.25;;;;;;;;6334952;22;45456;-76
2023/03/23 11:43:51;;;;;;;;;0.25;0.25;;;;;;;;6335080;22;45315;-77
2023/03/23 11:46:28;;;;;;;;;3.00;1.00;;;;;;;;6335168;22;45206;-78
2023/03/23 11:49:02;;;;;;;;;0.00;0.00;;;;;;;;6334441;22;46057;-78
2023/03/23 11:51:37;;;;;;;;;2.75;1.00;;;;;;;;6334565;22;45579;-78
2023/03/23 11:54:08;;;;;;;;;2.00;0.00;;;;;;;;6334014;22;45493;-77
2023/03/23 11:56:36;;;;;;;;;1.75;0.75;;;;;;;;6333091;22;45301;-78
2023/03/23 11:59:03;;;;;;;;;2.75;1.00;;;;;;;;6334309;22;47141;-76
2023/03/23 12:01:31;;;;;;;;;3.00;0.25;;;;;;;;6334463;22;45354;-77
2023/03/23 12:04:09;;;;;;;;;4.75;1.00;;;;;;;;6334467;22;45328;-79
2023/03/23 12:06:35;;;;;;;;;1.00;1.00;;;;;;;;6334427;22;45286;-79
2023/03/23 12:09:00;;;;;;;;;5.00;1.00;;;;;;;;6334472;22;47057;-78
2023/03/23 12:11:32;;;;;;;;;3.00;1.00;;;;;;;;6334541;22;45265;-77
2023/03/23 12:14:06;;;;;;;;;1.75;1.00;;;;;;;;6333442;22;45347;-77
2023/03/23 12:16:50;;;;;;;;;1.00;1.00;;;;;;;;6334598;22;45510;-80
2023/03/23 12:19:31;;;;;;;;;3.75;2.00;;;;;;;;6333914;22;47537;-79
2023/03/23 12:21:59;;;;;;;;;2.00;0.00;;;;;;;;6334571;22;45316;-77
2023/03/23 12:24:31;;;;;;;;;2.25;1.00;;;;;;;;6334817;22;45379;-77
2023/03/23 12:27:01;;;;;;;;;2.75;2.00;;;;;;;;6334753;22;45570;-79
2023/03/23 12:29:26;;;;;;;;;3.00;1.50;;;;;;;;6334189;22;46309;-77
2023/03/23 12:32:00;;;;;;;;;0.00;0.00;;;;;;;;6334994;22;45708;-77
2023/03/23 12:34:32;;;;;;;;;0.50;0.25;;;;;;;;6335125;22;45345;-79
2023/03/23 12:36:59;;;;;;;;;3.25;2.00;;;;;;;;6334481;22;45436;-81
2023/03/23 12:39:40;;;;;;;;;1.00;1.00;;;;;;;;6332884;22;47019;-78
2023/03/23 12:42:25;;;;;;;;;1.00;1.00;;;;;;;;6334879;22;45591;-77
2023/03/23 12:44:53;;;;;;;;;1.50;1.00;;;;;;;;6333438;22;45343;-84
2023/03/23 12:47:37;;;;;;;;;1.50;1.00;;;;;;;;6334496;22;45355;-76
2023/03/23 12:50:21;;;;;;;;;2.75;1.00;;;;;;;;6334315;22;45398;-77
2023/03/23 12:52:49;;;;;;;;;1.00;1.00;;;;;;;;6333917;22;45279;-76
2023/03/23 12:55:17;;;;;;;;;4.00;1.00;;;;;;;;6334862;22;45356;-77
2023/03/23 12:57:59;;;;;;;;;4.50;1.00;;;;;;;;6333890;22;45621;-77
2023/03/23 13:00:29;;;;;;;;;0.25;0.25;;;;;;;;6334745;22;47231;-78
2023/03/23 13:02:54;;;;;;;;;1.00;1.00;;;;;;;;6334441;22;45284;-77
2023/03/23 13:05:23;;;;;;;;;1.50;1.50;;;;;;;;6335973;22;45269;-76
2023/03/23 13:07:51;;;;;;;;;2.50;0.75;;;;;;;;6335421;22;45270;-77
2023/03/23 13:10:19;;;;;;;;;3.75;1.00;;;;;;;;6335195;22;47164;-76
2023/03/23 13:12:46;;;;;;;;;1.00;1.00;;;;;;;;6335200;22;45622;-78
2023/03/23 13:15:25;;;;;;;;;3.00;1.00;;;;;;;;6332542;22;45154;-77
2023/03/23 13:17:51;;;;;;;;;1.75;1.75;;;;;;;;6334721;22;45437;-75
2023/03/23 13:20:25;;;;;;;;;2.00;1.00;;;;;;;;6333503;22;46045;-75
2023/03/23 13:22:58;;;;;;;;;2.25;1.25;;;;;;;;6334754;22;45291;-76
2023/03/23 13:25:36;;;;;;;;;1.00;0.25;;;;;;;;6332510;22;45380;-76
2023/03/23 13:28:01;;;;;;;;;0.00;0.00;;;;;;;;6334143;22;45287;-78
2023/03/23 13:30:28;;;;;;;;;6.00;1.75;;;;;;;;6334347;22;46301;-78
2023/03/23 13:33:01;;;;;;;;;1.00;1.00;;;;;;;;6334862;22;45203;-76
2023/03/23 13:35:33;;;;;;;;;1.50;1.00;;;;;;;;6335119;22;45606;-77
2023/03/23 13:37:58;;;;;;;;;3.00;1.25;;;;;;;;6335147;22;45348;-77
2023/03/23 13:40:25;;;;;;;;;2.00;2.00;;;;;;;;6334743;22;46003;-77
2023/03/23 13:42:55;;;;;;;;;4.00;1.25;;;;;;;;6335027;22;45360;-76
2023/03/23 13:45:21;;;;;;;;;2.50;1.00;;;;;;;;6334855;22;45302;-76
2023/03/23 13:47:46;;;;;;;;;1.00;1.00;;;;;;;;6334659;22;45312;-77
2023/03/23 13:50:26;;;;;;;;;2.00;2.00;;;;;;;;6334624;22;45498;-77
2023/03/23 13:52:53;;;;;;;;;3.50;1.00;;;;;;;;6334367;22;45538;-77
2023/03/23 13:55:20;;;;;;;;;2.00;1.00;;;;;;;;6335063;22;45244;-77
2023/03/23 13:57:53;;;;;;;;;2.00;1.00;;;;;;;;6335259;22;45307;-77
2023/03/23 14:00:31;;;;;;;;;3.50;2.00;;;;;;;;6334098;22;46147;-77
2023/03/23 14:03:12;;;;;;;;;1.00;0.75;;;;;;;;6334804;22;45299;-77
2023/03/23 14:05:39;;;;;;;;;1.00;1.00;;;;;;;;6334447;22;45672;-77
2023/03/23 14:08:16;;;;;;;;;3.00;1.00;;;;;;;;6334585;22;45304;-75
2023/03/23 14:10:43;;;;;;;;;5.75;1.00;;;;;;;;6334678;22;46454;-75
2023/03/23 14:13:16;;;;;;;;;1.00;1.00;;;;;;;;6334766;22;45547;-78
2023/03/23 14:15:44;;;;;;;;;3.50;1.00;;;;;;;;6334637;22;45367;-77
2023/03/23 14:18:13;;;;;;;;;2.00;1.00;;;;;;;;6334549;22;45332;-77
2023/03/23 14:20:39;;;;;;;;;3.00;0.00;;;;;;;;6334592;22;46358;-77
2023/03/23 14:23:05;;;;;;;;;1.00;1.00;;;;;;;;6334383;22;45600;-77
2023/03/23 14:25:33;;;;;;;;;0.50;0.50;;;;;;;;6334902;22;45468;-77
2023/03/23 14:27:59;;;;;;;;;3.00;1.75;;;;;;;;6334936;22;45369;-77
2023/03/23 14:30:26;;;;;;;;;1.00;1.00;;;;;;;;6333524;22;45399;-77
2023/03/23 14:32:52;;;;;;;;;1.75;0.75;;;;;;;;6333971;22;45463;-77
2023/03/23 14:35:17;;;;;;;;;2.75;1.00;;;;;;;;6335918;22;45422;-77
2023/03/23 14:37:42;;;;;;;;;4.75;1.00;;;;;;;;6336448;22;45439;-75
2023/03/23 14:40:13;;;;;;;;;1.50;1.00;;;;;;;;6334046;22;48190;-78
2023/03/23 14:42:39;;;;;;;;;2.00;2.00;;;;;;;;6335527;22;45267;-78
2023/03/23 14:45:05;;;;;;;;;2.50;1.00;;;;;;;;6335408;22;45521;-77
2023/03/23 14:47:33;;;;;;;;;2.00;2.00;;;;;;;;6335817;22;45243;-78
2023/03/23 14:50:00;;;;;;;;;1.00;1.00;;;;;;;;6336437;22;45588;-77
2023/03/23 14:52:27;;;;;;;;;2.75;0.75;;;;;;;;6336047;22;45236;-77
2023/03/23 14:54:52;;;;;;;;;0.50;0.50;;;;;;;;6335803;22;45497;-77
2023/03/23 14:57:23;;;;;;;;;0.33;0.33;;;;;;;;6335601;22;45240;-78
2023/03/23 14:59:48;;;;;;;;;0.75;0.75;;;;;;;;6335974;22;46053;-76